Main page
METAR-TAF:

METAR-TAF

Airports :

Mangaluru Airport

Mangalore, India

latitude: 12-55N, longitude: 074-53E, elevation: 102 m

Current weather observation

The report was made 10 minutes ago, at 09:30 UTC
Wind 10 kt from the West
Temperature 33°C
Humidity 59%
Pressure 1007 hPa
Visibility: 8000 m
Few clouds at a height of 1500 ft

METAR: VOML 190930Z 26010KT 8000 FEW015 33/24 Q1007 NOSIG

Time: 15:10 (09:40 UTC)

Forecast

The report was made 1 hour and 40 minutes ago, at 08:00 UTC
Forecast valid from 19 at 09 UTC to 19 at 18 UTC
Wind 10 kt from the West/Northwest
Visibility: 6000 m
Scattered clouds at a height of 1500 ft
Temporary
from 19 at 09 UTC to 19 at 15 UTC
Scattered clouds at a height of 1500 ft
Scattered clouds at a height of 2000 ft
Few clouds at a height of 2500 ft, Cumulonimbus.

TAF: VOML 190800Z 1909/1918 29010KT 6000 SCT015 TEMPO 1909/1915 SCT015 SCT020 FEW025CB

Weather observations and forecasts of more than 4000 airports (METAR and TAF reports).

The available stations are represented by yellow and red dots on the map.

Hover mouse over dot to see the name of the station.

Then click to see weather observations and forecasts.

To change the map : click on the green buttons with a black cross to zoom in, on the green button with a dash to zoom out, or on the green arrows for adjacent maps.


METAR-TAF: